sensor_id;sensor_type;location;lat;lon;timestamp;temperature;humidity
42743;DHT22;28397;44.552;-0.848;2023-03-23T00:02:11;12.90;99.90
42743;DHT22;28397;44.552;-0.848;2023-03-23T00:04:37;12.80;99.90
42743;DHT22;28397;44.552;-0.848;2023-03-23T00:07:03;13.00;99.90
42743;DHT22;28397;44.552;-0.848;2023-03-23T00:09:29;12.90;99.90
42743;DHT22;28397;44.552;-0.848;2023-03-23T00:11:55;12.90;99.90
42743;DHT22;28397;44.552;-0.848;2023-03-23T00:14:23;12.80;99.90
42743;DHT22;28397;44.552;-0.848;2023-03-23T00:16:50;12.80;99.90
42743;DHT22;28397;44.552;-0.848;2023-03-23T00:19:16;12.90;99.90
42743;DHT22;28397;44.552;-0.848;2023-03-23T00:21:45;12.90;99.90
42743;DHT22;28397;44.552;-0.848;2023-03-23T00:24:13;12.70;99.90
42743;DHT22;28397;44.552;-0.848;2023-03-23T00:26:41;13.10;99.90
42743;DHT22;28397;44.552;-0.848;2023-03-23T00:29:19;13.20;99.90
42743;DHT22;28397;44.552;-0.848;2023-03-23T00:31:47;13.10;99.90
42743;DHT22;28397;44.552;-0.848;2023-03-23T00:34:15;13.20;99.90
42743;DHT22;28397;44.552;-0.848;2023-03-23T00:36:52;12.90;99.90
42743;DHT22;28397;44.552;-0.848;2023-03-23T00:39:22;13.10;99.90
42743;DHT22;28397;44.552;-0.848;2023-03-23T00:41:51;13.10;99.90
42743;DHT22;28397;44.552;-0.848;2023-03-23T00:44:17;13.40;99.90
42743;DHT22;28397;44.552;-0.848;2023-03-23T00:46:46;13.30;99.90
42743;DHT22;28397;44.552;-0.848;2023-03-23T00:49:16;13.20;99.90
42743;DHT22;28397;44.552;-0.848;2023-03-23T00:51:43;13.00;99.90
42743;DHT22;28397;44.552;-0.848;2023-03-23T00:54:10;13.00;99.90
42743;DHT22;28397;44.552;-0.848;2023-03-23T00:56:36;12.90;99.90
42743;DHT22;28397;44.552;-0.848;2023-03-23T00:59:02;13.00;99.90
42743;DHT22;28397;44.552;-0.848;2023-03-23T01:01:29;13.10;99.90
42743;DHT22;28397;44.552;-0.848;2023-03-23T01:03:55;13.00;99.90
42743;DHT22;28397;44.552;-0.848;2023-03-23T01:06:27;12.80;99.90
42743;DHT22;28397;44.552;-0.848;2023-03-23T01:08:53;13.20;99.90
42743;DHT22;28397;44.552;-0.848;2023-03-23T01:11:20;13.00;99.90
42743;DHT22;28397;44.552;-0.848;2023-03-23T01:13:45;13.00;99.90
42743;DHT22;28397;44.552;-0.848;2023-03-23T01:16:12;12.90;99.90
42743;DHT22;28397;44.552;-0.848;2023-03-23T01:18:38;12.80;99.90
42743;DHT22;28397;44.552;-0.848;2023-03-23T01:21:09;12.60;99.90
42743;DHT22;28397;44.552;-0.848;2023-03-23T01:23:37;12.80;99.90
42743;DHT22;28397;44.552;-0.848;2023-03-23T01:26:07;12.80;99.90
42743;DHT22;28397;44.552;-0.848;2023-03-23T01:28:35;12.70;99.90
42743;DHT22;28397;44.552;-0.848;2023-03-23T01:31:06;12.80;99.90
42743;DHT22;28397;44.552;-0.848;2023-03-23T01:33:33;12.70;99.90
42743;DHT22;28397;44.552;-0.848;2023-03-23T01:36:07;12.70;99.90
42743;DHT22;28397;44.552;-0.848;2023-03-23T01:38:33;12.70;99.90
42743;DHT22;28397;44.552;-0.848;2023-03-23T01:40:59;12.70;99.90
42743;DHT22;28397;44.552;-0.848;2023-03-23T01:43:24;12.50;99.90
42743;DHT22;28397;44.552;-0.848;2023-03-23T01:45:50;12.60;99.90
42743;DHT22;28397;44.552;-0.848;2023-03-23T01:48:36;12.30;99.90
42743;DHT22;28397;44.552;-0.848;2023-03-23T01:51:12;12.60;99.90
42743;DHT22;28397;44.552;-0.848;2023-03-23T01:53:57;12.40;99.90
42743;DHT22;28397;44.552;-0.848;2023-03-23T01:56:27;12.40;99.90
42743;DHT22;28397;44.552;-0.848;2023-03-23T01:58:56;12.40;99.90
42743;DHT22;28397;44.552;-0.848;2023-03-23T02:01:22;12.50;99.90
42743;DHT22;28397;44.552;-0.848;2023-03-23T02:03:52;12.30;99.90
42743;DHT22;28397;44.552;-0.848;2023-03-23T02:06:19;12.50;99.90
42743;DHT22;28397;44.552;-0.848;2023-03-23T02:08:48;12.40;99.90
42743;DHT22;28397;44.552;-0.848;2023-03-23T02:11:17;12.20;99.90
42743;DHT22;28397;44.552;-0.848;2023-03-23T02:13:43;12.30;99.90
42743;DHT22;28397;44.552;-0.848;2023-03-23T02:22:22;12.20;99.90
42743;DHT22;28397;44.552;-0.848;2023-03-23T02:35:54;12.00;99.90
42743;DHT22;28397;44.552;-0.848;2023-03-23T02:39:14;12.10;99.90
42743;DHT22;28397;44.552;-0.848;2023-03-23T02:41:19;12.00;99.90
42743;DHT22;28397;44.552;-0.848;2023-03-23T02:43:48;11.90;99.90
42743;DHT22;28397;44.552;-0.848;2023-03-23T02:46:16;12.00;99.90
42743;DHT22;28397;44.552;-0.848;2023-03-23T02:48:43;12.00;99.90
42743;DHT22;28397;44.552;-0.848;2023-03-23T02:51:11;12.00;99.90
42743;DHT22;28397;44.552;-0.848;2023-03-23T02:53:39;12.10;99.90
42743;DHT22;28397;44.552;-0.848;2023-03-23T02:56:08;11.90;99.90
42743;DHT22;28397;44.552;-0.848;2023-03-23T02:58:36;12.00;99.90
42743;DHT22;28397;44.552;-0.848;2023-03-23T03:03:55;12.00;99.90
42743;DHT22;28397;44.552;-0.848;2023-03-23T03:09:31;11.90;99.90
42743;DHT22;28397;44.552;-0.848;2023-03-23T03:12:08;11.90;99.90
42743;DHT22;28397;44.552;-0.848;2023-03-23T03:14:48;12.00;99.90
42743;DHT22;28397;44.552;-0.848;2023-03-23T03:17:26;12.00;99.90
42743;DHT22;28397;44.552;-0.848;2023-03-23T03:20:01;11.90;99.90
42743;DHT22;28397;44.552;-0.848;2023-03-23T03:22:47;11.90;99.90
42743;DHT22;28397;44.552;-0.848;2023-03-23T03:25:14;12.00;99.90
42743;DHT22;28397;44.552;-0.848;2023-03-23T03:27:44;11.90;99.90
42743;DHT22;28397;44.552;-0.848;2023-03-23T03:30:14;11.90;99.90
42743;DHT22;28397;44.552;-0.848;2023-03-23T03:32:45;12.00;99.90
42743;DHT22;28397;44.552;-0.848;2023-03-23T03:35:14;12.00;99.90
42743;DHT22;28397;44.552;-0.848;2023-03-23T03:37:41;12.10;99.90
42743;DHT22;28397;44.552;-0.848;2023-03-23T03:40:10;12.00;99.90
42743;DHT22;28397;44.552;-0.848;2023-03-23T03:42:41;12.00;99.90
42743;DHT22;28397;44.552;-0.848;2023-03-23T03:45:12;11.90;99.90
42743;DHT22;28397;44.552;-0.848;2023-03-23T03:47:38;12.00;99.90
42743;DHT22;28397;44.552;-0.848;2023-03-23T03:50:05;12.10;99.90
42743;DHT22;28397;44.552;-0.848;2023-03-23T03:52:31;11.90;99.90
42743;DHT22;28397;44.552;-0.848;2023-03-23T03:54:57;11.90;99.90
42743;DHT22;28397;44.552;-0.848;2023-03-23T03:57:23;11.90;99.90
42743;DHT22;28397;44.552;-0.848;2023-03-23T03:59:49;11.80;99.90
42743;DHT22;28397;44.552;-0.848;2023-03-23T04:02:16;11.80;99.90
42743;DHT22;28397;44.552;-0.848;2023-03-23T04:04:47;11.60;99.90
42743;DHT22;28397;44.552;-0.848;2023-03-23T04:07:13;11.60;99.90
42743;DHT22;28397;44.552;-0.848;2023-03-23T04:09:43;11.50;99.90
42743;DHT22;28397;44.552;-0.848;2023-03-23T04:12:12;11.60;99.90
42743;DHT22;28397;44.552;-0.848;2023-03-23T04:14:38;11.60;99.90
42743;DHT22;28397;44.552;-0.848;2023-03-23T04:17:04;11.50;99.90
42743;DHT22;28397;44.552;-0.848;2023-03-23T04:19:32;11.50;99.90
42743;DHT22;28397;44.552;-0.848;2023-03-23T04:21:58;11.50;99.90
42743;DHT22;28397;44.552;-0.848;2023-03-23T04:24:24;11.50;99.90
42743;DHT22;28397;44.552;-0.848;2023-03-23T04:26:53;11.40;99.90
42743;DHT22;28397;44.552;-0.848;2023-03-23T04:29:20;11.40;99.90
42743;DHT22;28397;44.552;-0.848;2023-03-23T04:31:45;11.40;99.90
42743;DHT22;28397;44.552;-0.848;2023-03-23T04:34:12;11.40;99.90
42743;DHT22;28397;44.552;-0.848;2023-03-23T04:36:40;11.40;99.90
42743;DHT22;28397;44.552;-0.848;2023-03-23T04:39:06;11.40;99.90
42743;DHT22;28397;44.552;-0.848;2023-03-23T04:41:39;11.40;99.90
42743;DHT22;28397;44.552;-0.848;2023-03-23T04:44:06;11.20;99.90
42743;DHT22;28397;44.552;-0.848;2023-03-23T04:46:32;11.30;99.90
42743;DHT22;28397;44.552;-0.848;2023-03-23T04:48:59;11.30;99.90
42743;DHT22;28397;44.552;-0.848;2023-03-23T04:51:30;11.30;99.90
42743;DHT22;28397;44.552;-0.848;2023-03-23T04:53:56;11.40;99.90
42743;DHT22;28397;44.552;-0.848;2023-03-23T04:56:22;11.40;99.90
42743;DHT22;28397;44.552;-0.848;2023-03-23T04:58:48;11.40;99.90
42743;DHT22;28397;44.552;-0.848;2023-03-23T05:01:13;11.40;99.90
42743;DHT22;28397;44.552;-0.848;2023-03-23T05:03:42;11.40;99.90
42743;DHT22;28397;44.552;-0.848;2023-03-23T05:06:09;11.30;99.90
42743;DHT22;28397;44.552;-0.848;2023-03-23T05:08:35;11.30;99.90
42743;DHT22;28397;44.552;-0.848;2023-03-23T05:11:05;11.30;99.90
42743;DHT22;28397;44.552;-0.848;2023-03-23T05:13:32;11.20;99.90
42743;DHT22;28397;44.552;-0.848;2023-03-23T05:15:58;11.20;99.90
42743;DHT22;28397;44.552;-0.848;2023-03-23T05:18:23;11.20;99.90
42743;DHT22;28397;44.552;-0.848;2023-03-23T05:20:49;11.20;99.90
42743;DHT22;28397;44.552;-0.848;2023-03-23T05:23:18;11.00;99.90
42743;DHT22;28397;44.552;-0.848;2023-03-23T05:25:55;10.90;99.90
42743;DHT22;28397;44.552;-0.848;2023-03-23T05:28:21;11.00;99.90
42743;DHT22;28397;44.552;-0.848;2023-03-23T05:30:48;11.00;99.90
42743;DHT22;28397;44.552;-0.848;2023-03-23T05:33:14;11.00;99.90
42743;DHT22;28397;44.552;-0.848;2023-03-23T05:35:40;11.00;99.90
42743;DHT22;28397;44.552;-0.848;2023-03-23T05:38:05;11.00;99.90
42743;DHT22;28397;44.552;-0.848;2023-03-23T05:40:31;11.00;99.90
42743;DHT22;28397;44.552;-0.848;2023-03-23T05:42:57;10.90;99.90
42743;DHT22;28397;44.552;-0.848;2023-03-23T05:45:24;10.70;99.90
42743;DHT22;28397;44.552;-0.848;2023-03-23T05:47:51;10.50;99.90
42743;DHT22;28397;44.552;-0.848;2023-03-23T05:50:18;10.50;99.90
42743;DHT22;28397;44.552;-0.848;2023-03-23T05:52:44;10.50;99.90
42743;DHT22;28397;44.552;-0.848;2023-03-23T05:55:10;10.50;99.90
42743;DHT22;28397;44.552;-0.848;2023-03-23T05:57:36;10.40;99.90
42743;DHT22;28397;44.552;-0.848;2023-03-23T06:00:03;10.40;99.90
42743;DHT22;28397;44.552;-0.848;2023-03-23T06:02:37;10.40;99.90
42743;DHT22;28397;44.552;-0.848;2023-03-23T06:05:03;10.40;99.90
42743;DHT22;28397;44.552;-0.848;2023-03-23T06:07:29;10.40;99.90
42743;DHT22;28397;44.552;-0.848;2023-03-23T06:09:55;10.40;99.90
42743;DHT22;28397;44.552;-0.848;2023-03-23T06:12:21;10.50;99.90
42743;DHT22;28397;44.552;-0.848;2023-03-23T06:14:47;10.30;99.90
42743;DHT22;28397;44.552;-0.848;2023-03-23T06:17:14;10.40;99.90
42743;DHT22;28397;44.552;-0.848;2023-03-23T06:19:41;10.40;99.90
42743;DHT22;28397;44.552;-0.848;2023-03-23T06:22:07;10.40;99.90
42743;DHT22;28397;44.552;-0.848;2023-03-23T06:24:33;10.60;99.90
42743;DHT22;28397;44.552;-0.848;2023-03-23T06:26:59;10.60;99.90
42743;DHT22;28397;44.552;-0.848;2023-03-23T06:29:25;10.80;99.90
42743;DHT22;28397;44.552;-0.848;2023-03-23T06:31:59;11.10;99.90
42743;DHT22;28397;44.552;-0.848;2023-03-23T06:34:25;13.30;99.90
42743;DHT22;28397;44.552;-0.848;2023-03-23T06:36:51;13.00;99.90
42743;DHT22;28397;44.552;-0.848;2023-03-23T06:39:17;12.10;99.90
42743;DHT22;28397;44.552;-0.848;2023-03-23T06:41:43;11.80;99.90
42743;DHT22;28397;44.552;-0.848;2023-03-23T06:44:09;11.80;99.90
42743;DHT22;28397;44.552;-0.848;2023-03-23T06:46:39;12.30;99.90
42743;DHT22;28397;44.552;-0.848;2023-03-23T06:49:05;12.80;99.90
42743;DHT22;28397;44.552;-0.848;2023-03-23T06:51:31;14.00;99.90
42743;DHT22;28397;44.552;-0.848;2023-03-23T06:53:56;16.20;99.90
42743;DHT22;28397;44.552;-0.848;2023-03-23T06:56:23;20.40;99.90
42743;DHT22;28397;44.552;-0.848;2023-03-23T06:58:49;21.00;99.90
42743;DHT22;28397;44.552;-0.848;2023-03-23T07:01:15;19.50;99.90
42743;DHT22;28397;44.552;-0.848;2023-03-23T07:03:41;19.50;99.90
42743;DHT22;28397;44.552;-0.848;2023-03-23T07:06:08;19.60;99.90
42743;DHT22;28397;44.552;-0.848;2023-03-23T07:08:35;21.40;99.90
42743;DHT22;28397;44.552;-0.848;2023-03-23T07:11:01;22.90;99.90
42743;DHT22;28397;44.552;-0.848;2023-03-23T07:13:27;23.30;99.90
42743;DHT22;28397;44.552;-0.848;2023-03-23T07:15:52;22.40;99.90
42743;DHT22;28397;44.552;-0.848;2023-03-23T07:18:19;21.30;99.90
42743;DHT22;28397;44.552;-0.848;2023-03-23T07:20:52;20.60;99.90
42743;DHT22;28397;44.552;-0.848;2023-03-23T07:23:18;19.80;99.90
42743;DHT22;28397;44.552;-0.848;2023-03-23T07:25:44;19.20;99.90
42743;DHT22;28397;44.552;-0.848;2023-03-23T07:28:12;19.00;99.90
42743;DHT22;28397;44.552;-0.848;2023-03-23T07:30:38;18.40;99.90
42743;DHT22;28397;44.552;-0.848;2023-03-23T07:33:06;17.70;99.90
42743;DHT22;28397;44.552;-0.848;2023-03-23T07:35:32;17.30;99.90
42743;DHT22;28397;44.552;-0.848;2023-03-23T07:37:58;17.10;99.90
42743;DHT22;28397;44.552;-0.848;2023-03-23T07:40:25;16.90;99.90
42743;DHT22;28397;44.552;-0.848;2023-03-23T07:42:54;17.00;99.90
42743;DHT22;28397;44.552;-0.848;2023-03-23T07:45:20;17.50;99.90
42743;DHT22;28397;44.552;-0.848;2023-03-23T07:47:46;16.90;99.90
42743;DHT22;28397;44.552;-0.848;2023-03-23T07:50:12;16.50;99.90
42743;DHT22;28397;44.552;-0.848;2023-03-23T07:52:38;16.80;99.90
42743;DHT22;28397;44.552;-0.848;2023-03-23T07:55:06;16.30;99.90
42743;DHT22;28397;44.552;-0.848;2023-03-23T07:57:32;16.60;99.90
42743;DHT22;28397;44.552;-0.848;2023-03-23T07:59:59;16.40;99.90
42743;DHT22;28397;44.552;-0.848;2023-03-23T08:02:26;16.90;99.90
42743;DHT22;28397;44.552;-0.848;2023-03-23T08:04:52;16.60;99.90
42743;DHT22;28397;44.552;-0.848;2023-03-23T08:07:19;16.90;99.90
42743;DHT22;28397;44.552;-0.848;2023-03-23T08:09:45;17.20;99.90
42743;DHT22;28397;44.552;-0.848;2023-03-23T08:12:12;17.00;99.90
42743;DHT22;28397;44.552;-0.848;2023-03-23T08:14:38;16.80;99.90
42743;DHT22;28397;44.552;-0.848;2023-03-23T08:17:05;17.00;99.90
42743;DHT22;28397;44.552;-0.848;2023-03-23T08:19:31;17.00;99.90
42743;DHT22;28397;44.552;-0.848;2023-03-23T08:22:05;16.50;99.90
42743;DHT22;28397;44.552;-0.848;2023-03-23T08:24:31;16.80;99.90
42743;DHT22;28397;44.552;-0.848;2023-03-23T08:26:58;16.70;99.90
42743;DHT22;28397;44.552;-0.848;2023-03-23T08:29:25;16.80;99.90
42743;DHT22;28397;44.552;-0.848;2023-03-23T08:31:50;16.60;99.90
42743;DHT22;28397;44.552;-0.848;2023-03-23T08:34:16;16.70;99.90
42743;DHT22;28397;44.552;-0.848;2023-03-23T08:36:42;17.00;99.90
42743;DHT22;28397;44.552;-0.848;2023-03-23T08:39:10;17.80;99.90
42743;DHT22;28397;44.552;-0.848;2023-03-23T08:41:35;17.80;99.90
42743;DHT22;28397;44.552;-0.848;2023-03-23T08:44:01;18.30;99.90
42743;DHT22;28397;44.552;-0.848;2023-03-23T08:46:27;18.10;99.90
42743;DHT22;28397;44.552;-0.848;2023-03-23T08:48:53;18.10;99.90
42743;DHT22;28397;44.552;-0.848;2023-03-23T08:51:19;17.80;99.90
42743;DHT22;28397;44.552;-0.848;2023-03-23T08:53:45;17.70;99.90
42743;DHT22;28397;44.552;-0.848;2023-03-23T08:56:11;17.80;99.90
42743;DHT22;28397;44.552;-0.848;2023-03-23T08:58:40;17.70;99.90
42743;DHT22;28397;44.552;-0.848;2023-03-23T09:01:06;17.30;99.90
42743;DHT22;28397;44.552;-0.848;2023-03-23T09:03:33;17.20;99.90
42743;DHT22;28397;44.552;-0.848;2023-03-23T09:06:01;17.70;99.90
42743;DHT22;28397;44.552;-0.848;2023-03-23T09:08:28;17.50;99.90
42743;DHT22;28397;44.552;-0.848;2023-03-23T09:10:58;17.40;99.90
42743;DHT22;28397;44.552;-0.848;2023-03-23T09:13:24;17.60;99.90
42743;DHT22;28397;44.552;-0.848;2023-03-23T09:15:49;17.40;99.90
42743;DHT22;28397;44.552;-0.848;2023-03-23T09:18:16;17.40;99.90
42743;DHT22;28397;44.552;-0.848;2023-03-23T09:20:42;17.30;99.90
42743;DHT22;28397;44.552;-0.848;2023-03-23T09:23:09;17.60;99.90
42743;DHT22;28397;44.552;-0.848;2023-03-23T09:25:35;18.50;99.90
42743;DHT22;28397;44.552;-0.848;2023-03-23T09:28:01;19.30;99.90
42743;DHT22;28397;44.552;-0.848;2023-03-23T09:30:30;20.10;99.90
42743;DHT22;28397;44.552;-0.848;2023-03-23T09:32:57;19.70;99.90
42743;DHT22;28397;44.552;-0.848;2023-03-23T09:35:23;20.30;99.90
42743;DHT22;28397;44.552;-0.848;2023-03-23T09:37:51;20.20;99.90
42743;DHT22;28397;44.552;-0.848;2023-03-23T09:40:23;20.30;99.90
42743;DHT22;28397;44.552;-0.848;2023-03-23T09:46:21;19.60;99.90
42743;DHT22;28397;44.552;-0.848;2023-03-23T09:49:03;19.40;99.90
42743;DHT22;28397;44.552;-0.848;2023-03-23T09:56:55;19.40;99.90
42743;DHT22;28397;44.552;-0.848;2023-03-23T09:59:27;20.70;99.90
42743;DHT22;28397;44.552;-0.848;2023-03-23T10:02:03;22.10;99.90
42743;DHT22;28397;44.552;-0.848;2023-03-23T10:04:43;21.10;99.90
42743;DHT22;28397;44.552;-0.848;2023-03-23T10:07:38;20.60;99.90
42743;DHT22;28397;44.552;-0.848;2023-03-23T10:10:05;19.80;99.90
42743;DHT22;28397;44.552;-0.848;2023-03-23T10:12:40;20.10;99.90
42743;DHT22;28397;44.552;-0.848;2023-03-23T10:15:20;19.40;99.90
42743;DHT22;28397;44.552;-0.848;2023-03-23T10:18:08;19.60;99.90
42743;DHT22;28397;44.552;-0.848;2023-03-23T10:20:43;20.00;99.90
42743;DHT22;28397;44.552;-0.848;2023-03-23T10:25:52;20.90;99.90
42743;DHT22;28397;44.552;-0.848;2023-03-23T10:28:18;20.70;99.90
42743;DHT22;28397;44.552;-0.848;2023-03-23T10:30:58;20.60;99.90
42743;DHT22;28397;44.552;-0.848;2023-03-23T10:33:38;20.50;99.90
42743;DHT22;28397;44.552;-0.848;2023-03-23T10:36:19;20.80;99.90
42743;DHT22;28397;44.552;-0.848;2023-03-23T10:39:13;21.20;99.90
42743;DHT22;28397;44.552;-0.848;2023-03-23T10:41:39;22.00;99.90
42743;DHT22;28397;44.552;-0.848;2023-03-23T10:46:46;22.50;99.90
42743;DHT22;28397;44.552;-0.848;2023-03-23T10:49:19;21.90;99.90
42743;DHT22;28397;44.552;-0.848;2023-03-23T10:52:06;21.70;99.90
42743;DHT22;28397;44.552;-0.848;2023-03-23T10:54:39;22.50;99.90
42743;DHT22;28397;44.552;-0.848;2023-03-23T10:57:24;21.50;99.90
42743;DHT22;28397;44.552;-0.848;2023-03-23T10:59:50;21.20;99.90
42743;DHT22;28397;44.552;-0.848;2023-03-23T11:02:18;22.00;99.90
42743;DHT22;28397;44.552;-0.848;2023-03-23T11:04:56;22.60;99.90
42743;DHT22;28397;44.552;-0.848;2023-03-23T11:07:29;22.40;99.90
42743;DHT22;28397;44.552;-0.848;2023-03-23T11:10:11;22.80;99.90
42743;DHT22;28397;44.552;-0.848;2023-03-23T11:12:44;22.90;99.90
42743;DHT22;28397;44.552;-0.848;2023-03-23T11:15:28;23.20;99.90
42743;DHT22;28397;44.552;-0.848;2023-03-23T11:17:59;23.80;99.90
42743;DHT22;28397;44.552;-0.848;2023-03-23T11:20:27;23.90;99.90
42743;DHT22;28397;44.552;-0.848;2023-03-23T11:22:54;24.50;99.90
42743;DHT22;28397;44.552;-0.848;2023-03-23T11:25:21;23.40;99.90
42743;DHT22;28397;44.552;-0.848;2023-03-23T11:27:48;23.20;99.90
42743;DHT22;28397;44.552;-0.848;2023-03-23T11:30:26;22.80;99.90
42743;DHT22;28397;44.552;-0.848;2023-03-23T11:32:54;22.20;99.90
42743;DHT22;28397;44.552;-0.848;2023-03-23T11:35:26;22.20;99.90
42743;DHT22;28397;44.552;-0.848;2023-03-23T11:37:57;22.50;99.90
42743;DHT22;28397;44.552;-0.848;2023-03-23T11:40:29;23.30;99.90
42743;DHT22;28397;44.552;-0.848;2023-03-23T11:43:14;23.40;99.90
42743;DHT22;28397;44.552;-0.848;2023-03-23T11:49:01;22.70;99.90
42743;DHT22;28397;44.552;-0.848;2023-03-23T11:51:42;22.90;99.90
42743;DHT22;28397;44.552;-0.848;2023-03-23T11:54:35;22.40;99.90
42743;DHT22;28397;44.552;-0.848;2023-03-23T11:57:10;22.70;99.90
42743;DHT22;28397;44.552;-0.848;2023-03-23T11:59:37;22.80;99.90
42743;DHT22;28397;44.552;-0.848;2023-03-23T12:02:29;22.50;99.90
42743;DHT22;28397;44.552;-0.848;2023-03-23T12:16:42;22.20;99.90
42743;DHT22;28397;44.552;-0.848;2023-03-23T12:25:08;23.40;99.90
42743;DHT22;28397;44.552;-0.848;2023-03-23T12:28:29;22.80;99.90
42743;DHT22;28397;44.552;-0.848;2023-03-23T12:34:00;23.30;99.90
42743;DHT22;28397;44.552;-0.848;2023-03-23T12:44:47;22.60;99.90
42743;DHT22;28397;44.552;-0.848;2023-03-23T12:47:46;23.00;99.90
42743;DHT22;28397;44.552;-0.848;2023-03-23T12:50:30;23.40;99.90
42743;DHT22;28397;44.552;-0.848;2023-03-23T12:53:04;23.60;99.90
42743;DHT22;28397;44.552;-0.848;2023-03-23T12:58:18;24.40;99.90
42743;DHT22;28397;44.552;-0.848;2023-03-23T13:00:55;24.10;99.90
42743;DHT22;28397;44.552;-0.848;2023-03-23T13:03:28;24.40;99.90
42743;DHT22;28397;44.552;-0.848;2023-03-23T13:11:39;23.70;99.90
42743;DHT22;28397;44.552;-0.848;2023-03-23T13:17:14;23.50;99.90
42743;DHT22;28397;44.552;-0.848;2023-03-23T13:23:12;24.00;99.90
42743;DHT22;28397;44.552;-0.848;2023-03-23T13:26:13;24.40;99.90
42743;DHT22;28397;44.552;-0.848;2023-03-23T13:31:34;24.80;99.90
42743;DHT22;28397;44.552;-0.848;2023-03-23T13:34:29;24.40;99.90
42743;DHT22;28397;44.552;-0.848;2023-03-23T13:37:06;24.40;99.90
42743;DHT22;28397;44.552;-0.848;2023-03-23T13:39:47;24.00;99.90
42743;DHT22;28397;44.552;-0.848;2023-03-23T13:44:44;24.10;99.90
42743;DHT22;28397;44.552;-0.848;2023-03-23T13:47:27;24.30;99.90
42743;DHT22;28397;44.552;-0.848;2023-03-23T13:55:19;23.80;99.90
42743;DHT22;28397;44.552;-0.848;2023-03-23T14:03:12;24.20;99.90
42743;DHT22;28397;44.552;-0.848;2023-03-23T14:06:22;24.20;99.90
42743;DHT22;28397;44.552;-0.848;2023-03-23T14:13:44;23.70;99.90
42743;DHT22;28397;44.552;-0.848;2023-03-23T14:18:59;23.80;99.90
42743;DHT22;28397;44.552;-0.848;2023-03-23T14:21:37;24.00;99.90
42743;DHT22;28397;44.552;-0.848;2023-03-23T14:24:15;23.90;99.90
42743;DHT22;28397;44.552;-0.848;2023-03-23T14:26:41;24.20;99.90
42743;DHT22;28397;44.552;-0.848;2023-03-23T14:29:10;24.10;99.90
42743;DHT22;28397;44.552;-0.848;2023-03-23T14:31:37;24.40;99.90
42743;DHT22;28397;44.552;-0.848;2023-03-23T14:34:10;24.10;99.90
42743;DHT22;28397;44.552;-0.848;2023-03-23T14:36:38;24.60;99.90
42743;DHT22;28397;44.552;-0.848;2023-03-23T14:41:34;24.10;99.90
42743;DHT22;28397;44.552;-0.848;2023-03-23T14:44:02;24.20;99.90
42743;DHT22;28397;44.552;-0.848;2023-03-23T14:46:30;24.50;99.90
42743;DHT22;28397;44.552;-0.848;2023-03-23T14:49:00;24.30;99.90
42743;DHT22;28397;44.552;-0.848;2023-03-23T14:51:26;24.30;99.90
42743;DHT22;28397;44.552;-0.848;2023-03-23T14:53:53;24.60;99.90
42743;DHT22;28397;44.552;-0.848;2023-03-23T14:56:22;24.50;99.90
42743;DHT22;28397;44.552;-0.848;2023-03-23T14:58:50;24.40;99.90
42743;DHT22;28397;44.552;-0.848;2023-03-23T15:01:27;24.60;99.90
42743;DHT22;28397;44.552;-0.848;2023-03-23T15:06:31;24.50;99.90
42743;DHT22;28397;44.552;-0.848;2023-03-23T15:08:59;24.00;99.90
42743;DHT22;28397;44.552;-0.848;2023-03-23T15:11:37;23.90;99.90
42743;DHT22;28397;44.552;-0.848;2023-03-23T15:14:17;23.80;99.90
42743;DHT22;28397;44.552;-0.848;2023-03-23T15:16:47;23.80;99.90
42743;DHT22;28397;44.552;-0.848;2023-03-23T15:19:23;24.00;99.90
42743;DHT22;28397;44.552;-0.848;2023-03-23T15:21:55;23.80;99.90
42743;DHT22;28397;44.552;-0.848;2023-03-23T15:24:31;23.70;99.90
42743;DHT22;28397;44.552;-0.848;2023-03-23T15:27:17;23.60;99.90
42743;DHT22;28397;44.552;-0.848;2023-03-23T15:29:57;23.80;99.90
42743;DHT22;28397;44.552;-0.848;2023-03-23T15:32:26;23.70;99.90
42743;DHT22;28397;44.552;-0.848;2023-03-23T15:34:52;23.40;99.90
42743;DHT22;28397;44.552;-0.848;2023-03-23T15:37:22;23.40;99.90
42743;DHT22;28397;44.552;-0.848;2023-03-23T15:39:49;23.30;99.90
42743;DHT22;28397;44.552;-0.848;2023-03-23T15:42:24;23.30;99.90
42743;DHT22;28397;44.552;-0.848;2023-03-23T15:47:37;23.50;99.90
42743;DHT22;28397;44.552;-0.848;2023-03-23T15:52:52;23.60;99.90
42743;DHT22;28397;44.552;-0.848;2023-03-23T15:55:22;24.10;99.90
42743;DHT22;28397;44.552;-0.848;2023-03-23T15:57:48;24.20;99.90
42743;DHT22;28397;44.552;-0.848;2023-03-23T16:00:16;24.30;99.90
42743;DHT22;28397;44.552;-0.848;2023-03-23T16:02:48;23.80;99.90
42743;DHT22;28397;44.552;-0.848;2023-03-23T16:05:15;23.80;99.90
42743;DHT22;28397;44.552;-0.848;2023-03-23T16:07:41;23.70;99.90
42743;DHT22;28397;44.552;-0.848;2023-03-23T16:10:15;24.10;99.90
42743;DHT22;28397;44.552;-0.848;2023-03-23T16:12:40;23.80;99.90
42743;DHT22;28397;44.552;-0.848;2023-03-23T16:15:06;23.70;99.90
42743;DHT22;28397;44.552;-0.848;2023-03-23T16:17:33;23.60;99.90
42743;DHT22;28397;44.552;-0.848;2023-03-23T16:19:59;23.80;99.90
42743;DHT22;28397;44.552;-0.848;2023-03-23T16:22:25;23.80;99.90
42743;DHT22;28397;44.552;-0.848;2023-03-23T16:24:51;24.00;99.90
42743;DHT22;28397;44.552;-0.848;2023-03-23T16:27:16;23.50;99.90
42743;DHT22;28397;44.552;-0.848;2023-03-23T16:29:42;23.50;99.90
42743;DHT22;28397;44.552;-0.848;2023-03-23T16:32:08;23.70;99.90
42743;DHT22;28397;44.552;-0.848;2023-03-23T16:34:34;23.60;99.90
42743;DHT22;28397;44.552;-0.848;2023-03-23T16:37:01;23.50;99.90
42743;DHT22;28397;44.552;-0.848;2023-03-23T16:39:27;23.70;99.90
42743;DHT22;28397;44.552;-0.848;2023-03-23T16:41:53;23.70;99.90
42743;DHT22;28397;44.552;-0.848;2023-03-23T16:44:19;23.50;99.90
42743;DHT22;28397;44.552;-0.848;2023-03-23T16:46:45;23.10;99.90
42743;DHT22;28397;44.552;-0.848;2023-03-23T16:49:10;23.30;99.90
42743;DHT22;28397;44.552;-0.848;2023-03-23T16:51:36;23.00;99.90
42743;DHT22;28397;44.552;-0.848;2023-03-23T16:54:02;23.00;99.90
42743;DHT22;28397;44.552;-0.848;2023-03-23T16:56:28;23.10;99.90
42743;DHT22;28397;44.552;-0.848;2023-03-23T16:58:53;22.70;99.90
42743;DHT22;28397;44.552;-0.848;2023-03-23T17:01:19;22.60;99.90
42743;DHT22;28397;44.552;-0.848;2023-03-23T17:03:45;22.60;99.90
42743;DHT22;28397;44.552;-0.848;2023-03-23T17:06:11;22.40;99.90
42743;DHT22;28397;44.552;-0.848;2023-03-23T17:08:36;22.30;99.90
42743;DHT22;28397;44.552;-0.848;2023-03-23T17:11:02;22.40;99.90
42743;DHT22;28397;44.552;-0.848;2023-03-23T17:13:28;22.10;99.90
42743;DHT22;28397;44.552;-0.848;2023-03-23T17:15:54;22.40;99.90
42743;DHT22;28397;44.552;-0.848;2023-03-23T17:18:22;22.30;99.90
42743;DHT22;28397;44.552;-0.848;2023-03-23T17:20:51;22.10;99.90
42743;DHT22;28397;44.552;-0.848;2023-03-23T17:23:16;21.80;99.90
42743;DHT22;28397;44.552;-0.848;2023-03-23T17:25:45;22.10;99.90
42743;DHT22;28397;44.552;-0.848;2023-03-23T17:28:11;22.00;99.90
42743;DHT22;28397;44.552;-0.848;2023-03-23T17:30:42;22.00;99.90